Thunder radar more information blitzortung!


Radar de pluja more information rain snow radar


Visita la nostra xarxa de llocs de meteo:

Template documentation
and downloads

And another site



Wind From: 11-12-2017 11:00 Until: 14:59 warning for: Wind Level: Yellow info button

Pagina Historial Weather Underground text

Diari Resum February 16, 2016 Unitats:  Mètric    Imperial   Tant
« Previous Dia
SegĂźent Dia »
Diari Setmana Mensual Anual Personalitzada
  Maxima: Minima: Media:
Temperatura: 14.7 °C 6.0 °C 11.1 °C
Punt de rosada: -3.8 °C -10.1 °C -7.6 °C
Humitat: 37 % 22 % 27 %
Wind Speed: 14.8 km/h 0.0 km/h 6 km/h
RĂ fegues de vent: 14.8 km/h - -
Vent:- - SW
Pression baro: 1023.9 hPa 1020.9 hPa -
Precipitacions: 0.0 mm    
Historical Graphs
 
 
Dades de taula per February 16, 2016
Temps Temperatura Punt de rosada Pression baro Vent Wind Speed RĂ fegues de vent Humitat Rainfall Rate (Hourly)
11:28 8.9 °C -5.0 °C 1022.9 hPa ENE 3.7 km/h 4.2 km/h 37 % 0.0 mm
11:33 9.0 °C -4.9 °C 1022.9 hPa WNW 3.7 km/h 3.7 km/h 37 % 0.0 mm
11:43 9.9 °C -4.1 °C 1022.9 hPa ESE 5.6 km/h 5.6 km/h 37 % 0.0 mm
11:48 10.3 °C -3.8 °C 1022.9 hPa ENE 3.7 km/h 3.7 km/h 37 % 0.0 mm
11:53 10.4 °C -4.1 °C 1022.9 hPa SW 2.3 km/h   36 % 0.0 mm
11:58 10.6 °C -3.9 °C 1022.9 hPa SW 7.4 km/h 7.4 km/h 36 % 0.0 mm
12:08 10.9 °C -4.8 °C 1022.9 hPa SW 7.4 km/h 7.4 km/h 33 % 0.0 mm
12:15 10.8 °C -4.8 °C 1022.9 hPa SW 3.2 km/h 8.0 km/h 33 % 0.0 mm
12:20 11.6 °C -4.6 °C 1022.9 hPa South 3.7 km/h 3.7 km/h 32 % 0.0 mm
12:25 11.6 °C -5.0 °C 1022.9 hPa WSW 9.3 km/h 9.3 km/h 31 % 0.0 mm
12:30 11.6 °C -5.0 °C 1022.9 hPa WSW 7.6 km/h 7.6 km/h 31 % 0.0 mm
12:35 11.5 °C -5.5 °C 1021.9 hPa NW 9.3 km/h 9.3 km/h 30 % 0.0 mm
12:40 11.8 °C -4.8 °C 1021.9 hPa SW 3.9 km/h 3.9 km/h 31 % 0.0 mm
12:45 11.8 °C -4.8 °C 1021.9 hPa WSW 5.6 km/h 5.6 km/h 31 % 0.0 mm
12:51 12.3 °C -4.8 °C 1021.9 hPa WSW 7.4 km/h 7.4 km/h 30 % 0.0 mm
12:56 12.2 °C -4.9 °C 1021.9 hPa WSW 7.4 km/h 7.4 km/h 30 % 0.0 mm
13:01 12.1 °C -5.9 °C 1021.9 hPa WSW 13.0 km/h 13.0 km/h 28 % 0.0 mm
13:06 11.8 °C -6.6 °C 1021.9 hPa SW 9.3 km/h 9.3 km/h 27 % 0.0 mm
13:11 11.8 °C -6.6 °C 1021.9 hPa SW 9.3 km/h 9.3 km/h 27 % 0.0 mm
13:16 12.3 °C -5.7 °C 1021.9 hPa WSW 12.6 km/h 12.6 km/h 28 % 0.0 mm
13:21 12.5 °C -6.0 °C 1021.9 hPa SW 13.0 km/h 13.0 km/h 27 % 0.0 mm
13:26 12.6 °C -5.9 °C 1021.9 hPa West 5.6 km/h 5.6 km/h 27 % 0.0 mm
13:31 13.0 °C -5.6 °C 1021.9 hPa SW 5.6 km/h 5.6 km/h 27 % 0.0 mm
13:36 12.9 °C -5.7 °C 1020.9 hPa SW 5.6 km/h 5.6 km/h 27 % 0.0 mm
13:41 12.9 °C -5.7 °C 1020.9 hPa SSW 9.7 km/h 9.7 km/h 27 % 0.0 mm
13:46 12.6 °C -6.4 °C 1020.9 hPa SW 5.6 km/h 5.6 km/h 26 % 0.0 mm
13:51 13.0 °C -5.6 °C 1021.9 hPa SSW 7.4 km/h 7.4 km/h 27 % 0.0 mm
13:56 13.2 °C -5.9 °C 1021.9 hPa WSW 7.4 km/h 7.4 km/h 26 % 0.0 mm
14:01 13.3 °C -5.3 °C 1021.9 hPa ESE 7.4 km/h 7.4 km/h 27 % 0.0 mm
14:06 13.5 °C -5.7 °C 1021.9 hPa SW 10.0 km/h 10.0 km/h 26 % 0.0 mm
14:11 13.3 °C -5.8 °C 1021.9 hPa ESE 2.6 km/h   26 % 0.0 mm
14:16 13.2 °C -5.9 °C 1021.9 hPa ENE 3.7 km/h 3.7 km/h 26 % 0.0 mm
14:21 13.4 °C -5.7 °C 1021.9 hPa WSW 7.4 km/h 7.4 km/h 26 % 0.0 mm
14:26 12.9 °C -7.2 °C 1021.9 hPa SSW 11.1 km/h 11.1 km/h 24 % 0.0 mm
14:31 13.0 °C -6.6 °C 1021.9 hPa SSW 7.9 km/h 7.9 km/h 25 % 0.0 mm
14:36 13.0 °C -7.1 °C 1021.9 hPa WSW 9.0 km/h 9.0 km/h 24 % 0.0 mm
14:41 13.1 °C -7.1 °C 1021.9 hPa SSW 7.4 km/h 7.4 km/h 24 % 0.0 mm
14:46 13.8 °C -5.9 °C 1021.9 hPa NW 3.7 km/h 3.7 km/h 25 % 0.0 mm
14:51 14.0 °C -5.8 °C 1021.9 hPa West 3.7 km/h 3.7 km/h 25 % 0.0 mm
14:56 14.1 °C -5.7 °C 1021.9 hPa SSW 13.0 km/h 13.0 km/h 25 % 0.0 mm
15:01 14.1 °C -6.2 °C 1021.9 hPa SW 11.1 km/h 11.1 km/h 24 % 0.0 mm
15:06 14.0 °C -5.8 °C 1021.9 hPa SW 7.4 km/h 7.4 km/h 25 % 0.0 mm
15:11 14.0 °C -6.3 °C 1021.9 hPa SW 11.1 km/h 11.1 km/h 24 % 0.0 mm
15:16 14.0 °C -6.3 °C 1021.9 hPa SW 3.7 km/h 3.7 km/h 24 % 0.0 mm
15:21 14.1 °C -6.2 °C 1021.9 hPa SW 11.9 km/h 11.9 km/h 24 % 0.0 mm
15:26 13.9 °C -6.9 °C 1021.9 hPa SW 12.2 km/h 12.2 km/h 23 % 0.0 mm
15:31 14.0 °C -6.3 °C 1021.9 hPa SW 13.7 km/h 13.7 km/h 24 % 0.0 mm
15:36 13.9 °C -6.4 °C 1020.9 hPa SW 3.9 km/h 3.9 km/h 24 % 0.0 mm
15:41 14.4 °C -5.9 °C 1020.9 hPa West 5.8 km/h 5.8 km/h 24 % 0.0 mm
15:46 14.2 °C -6.7 °C 1020.9 hPa SW 9.3 km/h 9.3 km/h 23 % 0.0 mm
15:51 14.0 °C -6.8 °C 1021.9 hPa West 11.1 km/h 11.1 km/h 23 % 0.0 mm
15:56 14.1 °C -6.8 °C 1021.9 hPa WSW 9.3 km/h 9.5 km/h 23 % 0.0 mm
16:01 14.4 °C -5.9 °C 1021.9 hPa SW 7.4 km/h 7.4 km/h 24 % 0.0 mm
16:06 14.7 °C -5.7 °C 1021.9 hPa SW 7.4 km/h 7.4 km/h 24 % 0.0 mm
16:11 14.3 °C -6.6 °C 1021.9 hPa SW 9.3 km/h 9.3 km/h 23 % 0.0 mm
16:16 14.3 °C -6.6 °C 1021.9 hPa WSW 9.3 km/h 9.3 km/h 23 % 0.0 mm
16:21 14.2 °C -6.7 °C 1021.9 hPa SW 5.6 km/h 5.6 km/h 23 % 0.0 mm
16:26 14.1 °C -6.8 °C 1021.9 hPa SW 10.0 km/h 10.0 km/h 23 % 0.0 mm
16:31 14.0 °C -6.8 °C 1021.9 hPa WNW 3.9 km/h 3.9 km/h 23 % 0.0 mm
16:36 14.0 °C -6.8 °C 1021.9 hPa WSW 9.3 km/h 9.3 km/h 23 % 0.0 mm
16:41 14.1 °C -6.8 °C 1021.9 hPa WSW 14.8 km/h 14.8 km/h 23 % 0.0 mm
16:46 14.0 °C -6.8 °C 1021.9 hPa WSW 9.5 km/h 9.5 km/h 23 % 0.0 mm
16:51 13.9 °C -6.9 °C 1021.9 hPa WSW 7.4 km/h 7.4 km/h 23 % 0.0 mm
17:01 13.8 °C -7.0 °C 1021.9 hPa SW 9.3 km/h 9.3 km/h 23 % 0.0 mm
17:06 13.7 °C -7.1 °C 1021.9 hPa SW 7.4 km/h 7.4 km/h 23 % 0.0 mm
17:16 13.7 °C -7.7 °C 1021.9 hPa West 7.4 km/h 7.4 km/h 22 % 0.0 mm
17:21 13.5 °C -7.8 °C 1021.9 hPa WSW 7.4 km/h 7.4 km/h 22 % 0.0 mm
17:26 13.7 °C -7.1 °C 1021.9 hPa West 6.1 km/h 6.1 km/h 23 % 0.0 mm
17:31 13.7 °C -7.1 °C 1021.9 hPa SW 5.6 km/h 5.6 km/h 23 % 0.0 mm
17:36 13.5 °C -7.3 °C 1021.9 hPa WNW 7.4 km/h 7.4 km/h 23 % 0.0 mm
17:41 13.2 °C -7.5 °C 1021.9 hPa WSW 5.6 km/h 5.8 km/h 23 % 0.0 mm
17:46 13.3 °C -7.4 °C 1021.9 hPa West 5.6 km/h 5.6 km/h 23 % 0.0 mm
17:51 13.1 °C -7.6 °C 1021.9 hPa WSW 7.4 km/h 7.4 km/h 23 % 0.0 mm
17:56 12.9 °C -7.8 °C 1021.9 hPa SW 5.6 km/h 5.6 km/h 23 % 0.0 mm
18:06 12.4 °C -8.2 °C 1021.9 hPa WSW 3.7 km/h 3.7 km/h 23 % 0.0 mm
18:11 12.3 °C -8.3 °C 1021.9 hPa West 5.6 km/h 5.6 km/h 23 % 0.0 mm
18:16 11.9 °C -8.6 °C 1021.9 hPa WSW 5.6 km/h 5.6 km/h 23 % 0.0 mm
18:21 11.6 °C -8.3 °C 1021.9 hPa SSW 2.3 km/h 2.3 km/h 24 % 0.0 mm
18:26 11.3 °C -9.1 °C 1021.9 hPa West 5.6 km/h 5.6 km/h 23 % 0.0 mm
18:31 11.2 °C -8.7 °C 1021.9 hPa WSW 3.7 km/h 3.7 km/h 24 % 0.0 mm
18:36 11.0 °C -8.8 °C 1021.9 hPa West 4.7 km/h 4.7 km/h 24 % 0.0 mm
18:46 10.6 °C -9.2 °C 1021.9 hPa WSW 5.3 km/h 5.3 km/h 24 % 0.0 mm
18:51 10.4 °C -9.3 °C 1021.9 hPa WSW 3.9 km/h 3.9 km/h 24 % 0.0 mm
18:56 10.3 °C -9.4 °C 1021.9 hPa WSW 3.7 km/h 3.7 km/h 24 % 0.0 mm
19:01 10.2 °C -9.5 °C 1021.9 hPa WSW 5.6 km/h 5.6 km/h 24 % 0.0 mm
19:06 10.1 °C -9.1 °C 1021.9 hPa West 7.4 km/h 7.4 km/h 25 % 0.0 mm
19:11 10.0 °C -9.2 °C 1021.9 hPa West 7.4 km/h 7.4 km/h 25 % 0.0 mm
19:16 9.9 °C -9.2 °C 1021.9 hPa WSW 7.4 km/h 7.4 km/h 25 % 0.0 mm
19:21 9.8 °C -9.3 °C 1021.9 hPa WSW 5.8 km/h 5.8 km/h 25 % 0.0 mm
19:26 9.7 °C -9.4 °C 1021.9 hPa SW 7.4 km/h 7.4 km/h 25 % 0.0 mm
19:31 9.7 °C -9.4 °C 1021.9 hPa WSW 5.6 km/h 5.6 km/h 25 % 0.0 mm
19:36 9.6 °C -9.5 °C 1021.9 hPa West 8.7 km/h 8.7 km/h 25 % 0.0 mm
19:41 9.6 °C -9.5 °C 1021.9 hPa WSW 3.9 km/h 3.9 km/h 25 % 0.0 mm
19:46 9.5 °C -9.6 °C 1021.9 hPa WNW 5.6 km/h 5.6 km/h 25 % 0.0 mm
19:51 9.4 °C -9.7 °C 1022.9 hPa SW 3.7 km/h 3.7 km/h 25 % 0.0 mm
19:56 9.3 °C -9.3 °C 1022.9 hPa WSW 5.6 km/h 5.6 km/h 26 % 0.0 mm
20:01 9.2 °C -9.3 °C 1022.9 hPa SW 5.6 km/h 5.6 km/h 26 % 0.0 mm
20:06 9.1 °C -9.4 °C 1022.9 hPa Calm     26 % 0.0 mm
20:11 8.9 °C -9.6 °C 1022.9 hPa ESE 1.9 km/h 1.9 km/h 26 % 0.0 mm
20:16 8.8 °C -9.7 °C 1022.9 hPa ESE 1.9 km/h 1.9 km/h 26 % 0.0 mm
20:21 8.7 °C -9.8 °C 1022.9 hPa East 5.6 km/h 5.6 km/h 26 % 0.0 mm
20:26 8.7 °C -9.8 °C 1022.9 hPa SE 3.9 km/h 3.9 km/h 26 % 0.0 mm
20:31 8.6 °C -9.9 °C 1022.9 hPa East 4.2 km/h 4.2 km/h 26 % 0.0 mm
20:41 8.3 °C -9.7 °C 1023.9 hPa SSE 3.7 km/h 3.7 km/h 27 % 0.0 mm
20:46 8.2 °C -9.7 °C 1023.9 hPa ESE 3.9 km/h 3.9 km/h 27 % 0.0 mm
20:51 8.2 °C -9.7 °C 1023.9 hPa South 2.6 km/h 2.6 km/h 27 % 0.0 mm
20:56 8.0 °C -9.9 °C 1023.9 hPa Calm     27 % 0.0 mm
21:01 7.9 °C -10.0 °C 1023.9 hPa WSW 7.4 km/h 7.4 km/h 27 % 0.0 mm
21:06 7.9 °C -10.0 °C 1023.9 hPa WSW 3.7 km/h 3.7 km/h 27 % 0.0 mm
21:11 7.9 °C -9.5 °C 1023.9 hPa West 3.9 km/h   28 % 0.0 mm
21:16 7.8 °C -9.6 °C 1023.9 hPa WSW 3.7 km/h   28 % 0.0 mm
21:21 7.7 °C -9.7 °C 1022.9 hPa Calm     28 % 0.0 mm
21:26 7.5 °C -9.9 °C 1022.9 hPa Calm     28 % 0.0 mm
21:31 7.4 °C -9.5 °C 1022.9 hPa NNE 1.9 km/h   29 % 0.0 mm
21:36 7.3 °C -9.6 °C 1023.9 hPa SSE 3.7 km/h 3.7 km/h 29 % 0.0 mm
21:41 7.3 °C -9.6 °C 1023.9 hPa ENE 3.7 km/h 3.7 km/h 29 % 0.0 mm
21:46 7.2 °C -9.3 °C 1023.9 hPa Calm     30 % 0.0 mm
21:51 7.1 °C -9.8 °C 1023.9 hPa Calm     29 % 0.0 mm
21:56 6.9 °C -9.5 °C 1023.9 hPa SSW 1.9 km/h 1.9 km/h 30 % 0.0 mm
22:01 6.8 °C -9.6 °C 1023.9 hPa Calm     30 % 0.0 mm
22:06 6.7 °C -9.7 °C 1022.9 hPa WSW 4.7 km/h 4.7 km/h 30 % 0.0 mm
22:11 6.8 °C -9.6 °C 1022.9 hPa WSW 8.7 km/h 8.7 km/h 30 % 0.0 mm
22:16 6.8 °C -9.6 °C 1022.9 hPa SW 5.6 km/h 5.6 km/h 30 % 0.0 mm
22:21 6.7 °C -9.7 °C 1023.9 hPa WSW 7.4 km/h 7.4 km/h 30 % 0.0 mm
22:26 6.5 °C -9.9 °C 1023.9 hPa WSW 3.7 km/h 3.7 km/h 30 % 0.0 mm
22:31 6.4 °C -9.9 °C 1023.9 hPa WSW 5.6 km/h 5.6 km/h 30 % 0.0 mm
22:36 6.5 °C -9.9 °C 1022.9 hPa WSW 7.4 km/h 7.4 km/h 30 % 0.0 mm
22:41 6.6 °C -9.8 °C 1022.9 hPa WSW 3.7 km/h 3.7 km/h 30 % 0.0 mm
22:46 6.5 °C -9.9 °C 1022.9 hPa West 1.9 km/h   30 % 0.0 mm
22:51 6.4 °C -9.9 °C 1023.9 hPa SSE 1.9 km/h 1.9 km/h 30 % 0.0 mm
22:56 6.3 °C -10.1 °C 1023.9 hPa SSW 3.7 km/h 3.7 km/h 30 % 0.0 mm
23:06 6.0 °C -9.9 °C 1023.9 hPa Calm     31 % 0.0 mm
Meteo Sesrovires
Elogis d' Weather Underground - 3.25 mb

Guio original per  Jim McMurry - jmcmurry@mwt.net Adaptat per a la plantilla per  Wim van der Kuil - Leuven-Template.eu

Trobareu la nostra informacio del temps tambe a:

Weather Underground

AWEKAS